createdAt,value
2023-04-02T00:01:02.156Z,100.00
2023-04-02T00:01:39.223Z,100.00
2023-04-02T00:02:22.704Z,100.00
2023-04-02T00:02:54.189Z,100.00
2023-04-02T00:03:25.728Z,100.00
2023-04-02T00:03:59.395Z,100.00
2023-04-02T00:04:37.990Z,100.00
2023-04-02T00:05:16.584Z,100.00
2023-04-02T00:05:51.443Z,100.00
2023-04-02T00:06:25.815Z,100.00
2023-04-02T00:07:30.643Z,100.00
2023-04-02T00:08:10.305Z,100.00
2023-04-02T00:08:41.810Z,100.00
2023-04-02T00:09:13.128Z,100.00
2023-04-02T00:09:44.642Z,100.00
2023-04-02T00:10:39.734Z,100.00
2023-04-02T00:11:30.630Z,100.00
2023-04-02T00:12:15.446Z,100.00
2023-04-02T00:12:59.950Z,100.00
2023-04-02T00:13:44.203Z,100.00
2023-04-02T00:14:33.393Z,100.00
2023-04-02T00:15:05.267Z,100.00
2023-04-02T00:15:41.559Z,100.00
2023-04-02T00:16:17.256Z,100.00
2023-04-02T00:16:48.830Z,100.00
2023-04-02T00:17:24.570Z,100.00
2023-04-02T00:17:57.121Z,100.00
2023-04-02T00:18:29.175Z,100.00
2023-04-02T00:19:06.240Z,100.00
2023-04-02T00:19:43.886Z,100.00
2023-04-02T00:20:17.846Z,100.00
2023-04-02T00:20:56.059Z,100.00
2023-04-02T00:21:31.132Z,100.00
2023-04-02T00:22:06.641Z,100.00
2023-04-02T00:22:44.669Z,100.00
2023-04-02T00:23:16.152Z,100.00
2023-04-02T00:23:47.672Z,100.00
2023-04-02T00:24:21.469Z,100.00
2023-04-02T00:24:55.097Z,100.00
2023-04-02T00:25:28.677Z,100.00
2023-04-02T00:26:00.266Z,100.00
2023-04-02T00:26:37.736Z,100.00
2023-04-02T00:27:13.120Z,100.00
2023-04-02T00:27:44.542Z,100.00
2023-04-02T00:28:19.528Z,100.00
2023-04-02T00:28:54.074Z,100.00
2023-04-02T00:29:25.563Z,100.00
2023-04-02T00:29:58.912Z,100.00
2023-04-02T00:30:30.402Z,100.00
2023-04-02T00:31:01.845Z,100.00
2023-04-02T00:31:34.942Z,100.00
2023-04-02T00:32:06.597Z,100.00
2023-04-02T00:32:38.063Z,100.00
2023-04-02T00:33:17.115Z,100.00
2023-04-02T00:33:49.788Z,100.00
2023-04-02T00:34:26.118Z,100.00
2023-04-02T00:34:58.441Z,100.00
2023-04-02T00:35:30.769Z,100.00
2023-04-02T00:36:07.644Z,100.00
2023-04-02T00:36:39.250Z,100.00
2023-04-02T00:37:18.556Z,100.00
2023-04-02T00:37:50.510Z,100.00
2023-04-02T00:38:28.423Z,100.00
2023-04-02T00:39:04.736Z,100.00
2023-04-02T00:39:42.036Z,100.00
2023-04-02T00:40:31.593Z,100.00
2023-04-02T00:41:06.187Z,100.00
2023-04-02T00:41:38.684Z,100.00
2023-04-02T00:42:12.634Z,100.00
2023-04-02T00:42:44.774Z,100.00
2023-04-02T00:43:16.813Z,100.00
2023-04-02T00:43:50.778Z,100.00
2023-04-02T00:44:23.659Z,100.00
2023-04-02T00:44:55.886Z,100.00
2023-04-02T00:45:30.967Z,100.00
2023-04-02T00:46:10.710Z,100.00
2023-04-02T00:46:49.494Z,100.00
2023-04-02T00:47:24.543Z,100.00
2023-04-02T00:47:58.464Z,100.00
2023-04-02T00:48:33.382Z,100.00
2023-04-02T00:49:14.454Z,100.00
2023-04-02T00:49:46.984Z,100.00
2023-04-02T00:50:30.591Z,100.00
2023-04-02T00:51:17.713Z,100.00
2023-04-02T00:51:56.639Z,100.00
2023-04-02T00:52:31.213Z,100.00
2023-04-02T00:53:20.866Z,100.00
2023-04-02T00:53:55.133Z,100.00
2023-04-02T00:54:32.427Z,100.00
2023-04-02T00:55:14.862Z,100.00
2023-04-02T00:55:46.408Z,100.00
2023-04-02T00:56:28.467Z,100.00
2023-04-02T00:57:01.471Z,100.00
2023-04-02T00:57:33.813Z,100.00
2023-04-02T00:58:25.331Z,100.00
2023-04-02T00:58:58.236Z,100.00
2023-04-02T00:59:36.656Z,100.00
2023-04-02T01:00:23.671Z,100.00
2023-04-02T01:00:55.487Z,100.00
2023-04-02T01:01:34.837Z,100.00
2023-04-02T01:02:13.480Z,100.00
2023-04-02T01:03:17.108Z,100.00
2023-04-02T01:04:02.339Z,100.00
2023-04-02T01:04:36.391Z,100.00
2023-04-02T01:05:16.724Z,100.00
2023-04-02T01:06:01.638Z,100.00
2023-04-02T01:06:37.521Z,100.00
2023-04-02T01:07:11.095Z,100.00
2023-04-02T01:08:06.053Z,100.00
2023-04-02T01:08:45.689Z,100.00
2023-04-02T01:10:07.568Z,100.00
2023-04-02T01:10:57.376Z,100.00
2023-04-02T01:12:03.024Z,100.00
2023-04-02T01:12:57.160Z,100.00
2023-04-02T01:13:49.192Z,100.00
2023-04-02T01:14:44.951Z,100.00
2023-04-02T01:15:25.277Z,100.00
2023-04-02T01:16:18.312Z,100.00
2023-04-02T01:17:00.478Z,100.00
2023-04-02T01:17:48.944Z,100.00
2023-04-02T01:18:46.459Z,100.00
2023-04-02T01:20:07.071Z,100.00
2023-04-02T01:21:07.442Z,100.00
2023-04-02T01:21:52.759Z,100.00
2023-04-02T01:22:24.087Z,100.00
2023-04-02T01:23:11.502Z,100.00
2023-04-02T01:23:54.105Z,100.00
2023-04-02T01:24:31.471Z,100.00
2023-04-02T01:25:06.407Z,100.00
2023-04-02T01:25:58.566Z,100.00
2023-04-02T01:26:57.959Z,100.00
2023-04-02T01:27:39.689Z,100.00
2023-04-02T01:28:35.348Z,100.00
2023-04-02T01:29:12.872Z,100.00
2023-04-02T01:29:48.608Z,100.00
2023-04-02T01:30:21.104Z,100.00
2023-04-02T01:30:56.253Z,100.00
2023-04-02T01:31:30.364Z,100.00
2023-04-02T01:32:10.263Z,100.00
2023-04-02T01:32:42.946Z,100.00
2023-04-02T01:33:14.623Z,100.00
2023-04-02T01:33:46.308Z,100.00
2023-04-02T01:34:21.959Z,100.00
2023-04-02T01:34:55.466Z,100.00
2023-04-02T01:35:32.207Z,100.00
2023-04-02T01:36:14.345Z,100.00
2023-04-02T01:37:04.459Z,100.00
2023-04-02T01:37:49.332Z,100.00
2023-04-02T01:38:27.684Z,100.00
2023-04-02T01:39:27.323Z,100.00
2023-04-02T01:40:08.811Z,100.00
2023-04-02T01:41:03.406Z,100.00
2023-04-02T01:41:43.938Z,100.00
2023-04-02T01:42:42.651Z,100.00
2023-04-02T01:43:42.316Z,100.00
2023-04-02T01:44:26.306Z,100.00
2023-04-02T01:45:21.807Z,100.00
2023-04-02T01:45:53.267Z,100.00
2023-04-02T01:46:33.284Z,100.00
2023-04-02T01:47:08.390Z,100.00
2023-04-02T01:47:40.633Z,100.00
2023-04-02T01:48:19.780Z,99.87
2023-04-02T01:48:54.780Z,99.51
2023-04-02T01:49:27.126Z,99.28
2023-04-02T01:50:12.873Z,99.39
2023-04-02T01:50:47.004Z,99.58
2023-04-02T01:51:31.576Z,99.58
2023-04-02T01:52:03.039Z,99.96
2023-04-02T01:52:41.501Z,99.78
2023-04-02T01:53:16.343Z,99.17
2023-04-02T01:53:47.837Z,99.11
2023-04-02T01:54:21.232Z,99.30
2023-04-02T01:54:53.562Z,99.37
2023-04-02T01:55:50.662Z,99.19
2023-04-02T01:56:22.573Z,99.09
2023-04-02T01:56:54.717Z,98.71
2023-04-02T01:57:28.135Z,98.75
2023-04-02T01:58:01.295Z,98.84
2023-04-02T01:58:33.477Z,98.41
2023-04-02T01:59:05.981Z,98.80
2023-04-02T01:59:37.540Z,98.57
2023-04-02T02:00:14.786Z,98.85
2023-04-02T02:00:52.986Z,98.52
2023-04-02T02:01:31.311Z,98.75
2023-04-02T02:02:05.496Z,98.84
2023-04-02T02:02:37.146Z,98.83
2023-04-02T02:03:12.190Z,99.23
2023-04-02T02:03:44.798Z,99.54
2023-04-02T02:04:17.156Z,99.13
2023-04-02T02:04:48.727Z,99.48
2023-04-02T02:05:23.058Z,99.30
2023-04-02T02:05:55.497Z,99.75
2023-04-02T02:06:27.454Z,99.78
2023-04-02T02:07:00.863Z,99.70
2023-04-02T02:07:32.482Z,99.35
2023-04-02T02:08:20.559Z,99.58
2023-04-02T02:09:01.337Z,99.71
2023-04-02T02:09:35.638Z,99.80
2023-04-02T02:10:14.294Z,99.14
2023-04-02T02:10:45.840Z,99.55
2023-04-02T02:11:21.480Z,99.70
2023-04-02T02:11:52.965Z,99.67
2023-04-02T02:12:24.733Z,99.86
2023-04-02T02:13:00.159Z,99.63
2023-04-02T02:13:34.628Z,99.66
2023-04-02T02:14:13.959Z,99.96
2023-04-02T02:14:50.049Z,99.75
2023-04-02T02:15:23.472Z,99.93
2023-04-02T02:15:58.741Z,100.00
2023-04-02T02:16:32.038Z,99.95
2023-04-02T02:17:13.299Z,100.00
2023-04-02T02:17:45.153Z,99.89
2023-04-02T02:18:23.300Z,100.00
2023-04-02T02:19:02.591Z,99.58
2023-04-02T02:19:42.395Z,100.00
2023-04-02T02:20:14.830Z,99.52
2023-04-02T02:20:46.564Z,99.46
2023-04-02T02:21:29.836Z,99.70
2023-04-02T02:22:10.209Z,99.76
2023-04-02T02:22:48.396Z,99.08
2023-04-02T02:23:21.277Z,99.42
2023-04-02T02:23:53.787Z,98.94
2023-04-02T02:24:28.826Z,99.23
2023-04-02T02:25:05.271Z,99.14
2023-04-02T02:25:37.652Z,99.00
2023-04-02T02:26:13.050Z,98.81
2023-04-02T02:26:46.999Z,98.57
2023-04-02T02:27:24.023Z,99.28
2023-04-02T02:28:07.151Z,98.82
2023-04-02T02:28:42.429Z,98.90
2023-04-02T02:29:19.960Z,98.41
2023-04-02T02:29:56.589Z,98.91
2023-04-02T02:30:33.363Z,98.74
2023-04-02T02:31:12.842Z,98.87
2023-04-02T02:31:47.511Z,98.77
2023-04-02T02:33:22.211Z,98.77
2023-04-02T02:34:00.406Z,99.46
2023-04-02T02:34:39.262Z,99.02
2023-04-02T02:35:22.399Z,99.64
2023-04-02T02:36:01.578Z,99.17
2023-04-02T02:36:50.611Z,98.73
2023-04-02T02:37:29.087Z,99.43
2023-04-02T02:38:34.274Z,98.78
2023-04-02T02:39:37.176Z,99.15
2023-04-02T02:40:18.534Z,99.17
2023-04-02T02:40:54.479Z,98.89
2023-04-02T02:41:35.391Z,99.31
2023-04-02T02:42:28.391Z,99.49
2023-04-02T02:43:04.289Z,99.35
2023-04-02T02:43:40.327Z,99.29
2023-04-02T02:44:20.940Z,99.31
2023-04-02T02:44:55.158Z,99.12
2023-04-02T02:45:32.256Z,99.34
2023-04-02T02:46:04.826Z,99.78
2023-04-02T02:46:43.310Z,99.81
2023-04-02T02:47:16.048Z,99.67
2023-04-02T02:47:49.681Z,99.61
2023-04-02T02:48:27.050Z,99.93
2023-04-02T02:49:01.900Z,100.00
2023-04-02T02:49:41.988Z,100.00
2023-04-02T02:50:23.719Z,99.75
2023-04-02T02:50:56.508Z,99.20
2023-04-02T02:51:39.589Z,99.11
2023-04-02T02:52:16.204Z,99.58
2023-04-02T02:52:55.872Z,99.67
2023-04-02T02:53:27.256Z,99.92
2023-04-02T02:54:03.866Z,99.56
2023-04-02T02:54:38.048Z,100.00
2023-04-02T02:55:27.503Z,100.00
2023-04-02T02:56:01.234Z,100.00
2023-04-02T02:56:36.837Z,99.76
2023-04-02T02:57:13.751Z,99.65
2023-04-02T02:57:56.978Z,99.14
2023-04-02T02:58:32.668Z,99.81
2023-04-02T02:59:08.145Z,99.78
2023-04-02T02:59:40.422Z,99.62
2023-04-02T03:00:13.110Z,99.71
2023-04-02T03:00:46.582Z,100.00
2023-04-02T03:01:18.782Z,99.52
2023-04-02T03:01:51.168Z,99.52
2023-04-02T03:02:24.493Z,99.78
2023-04-02T03:02:57.475Z,99.66
2023-04-02T03:03:32.674Z,99.32
2023-04-02T03:04:04.466Z,99.58
2023-04-02T03:04:36.351Z,99.26
2023-04-02T03:05:08.638Z,99.15
2023-04-02T03:05:41.511Z,99.25
2023-04-02T03:06:16.765Z,98.97
2023-04-02T03:06:52.738Z,99.16
2023-04-02T03:07:26.939Z,99.16
2023-04-02T03:08:01.250Z,98.83
2023-04-02T03:08:40.213Z,98.85
2023-04-02T03:09:27.279Z,99.41
2023-04-02T03:10:22.500Z,98.83
2023-04-02T03:11:05.224Z,99.05
2023-04-02T03:11:43.468Z,99.17
2023-04-02T03:12:32.961Z,99.46
2023-04-02T03:13:35.063Z,99.35
2023-04-02T03:14:22.851Z,99.32
2023-04-02T03:15:01.380Z,99.47
2023-04-02T03:15:54.200Z,99.38
2023-04-02T03:16:36.675Z,99.60
2023-04-02T03:17:17.612Z,99.85
2023-04-02T03:18:13.191Z,99.69
2023-04-02T03:18:56.009Z,99.81
2023-04-02T03:19:45.361Z,99.71
2023-04-02T03:20:32.341Z,99.88
2023-04-02T03:21:12.301Z,99.35
2023-04-02T03:21:51.977Z,99.51
2023-04-02T03:22:32.201Z,99.69
2023-04-02T03:23:21.585Z,99.75
2023-04-02T03:24:22.694Z,99.54
2023-04-02T03:25:16.349Z,99.34
2023-04-02T03:26:00.697Z,99.12
2023-04-02T03:26:49.396Z,98.84
2023-04-02T03:27:26.082Z,99.31
2023-04-02T03:28:06.128Z,99.18
2023-04-02T03:28:46.515Z,98.80
2023-04-02T03:29:23.004Z,99.03
2023-04-02T03:30:18.701Z,98.64
2023-04-02T03:30:58.779Z,98.96
2023-04-02T03:31:48.429Z,98.68
2023-04-02T03:32:28.851Z,98.83
2023-04-02T03:33:06.377Z,98.62
2023-04-02T03:33:43.068Z,98.02
2023-04-02T03:34:26.525Z,98.18
2023-04-02T03:35:01.845Z,98.49
2023-04-02T03:35:43.475Z,98.47
2023-04-02T03:36:22.646Z,98.83
2023-04-02T03:37:05.190Z,98.42
2023-04-02T03:37:44.198Z,98.51
2023-04-02T03:38:25.710Z,98.41
2023-04-02T03:39:01.523Z,98.42
2023-04-02T03:39:46.486Z,98.44
2023-04-02T03:40:24.584Z,97.97
2023-04-02T03:41:23.554Z,98.05
2023-04-02T03:42:21.007Z,97.91
2023-04-02T03:43:00.805Z,97.57
2023-04-02T03:43:39.524Z,97.87
2023-04-02T03:44:28.218Z,97.33
2023-04-02T03:45:15.271Z,98.08
2023-04-02T03:45:51.947Z,97.74
2023-04-02T03:46:40.752Z,97.64
2023-04-02T03:47:30.750Z,97.73
2023-04-02T03:48:40.326Z,97.86
2023-04-02T03:49:37.841Z,97.47
2023-04-02T03:50:20.043Z,97.73
2023-04-02T03:51:06.245Z,97.37
2023-04-02T03:51:47.471Z,97.78
2023-04-02T03:52:27.355Z,97.36
2023-04-02T03:53:00.176Z,96.93
2023-04-02T03:53:32.481Z,96.46
2023-04-02T03:54:04.625Z,96.47
2023-04-02T03:54:36.447Z,96.09
2023-04-02T03:55:15.934Z,95.88
2023-04-02T03:55:47.619Z,95.98
2023-04-02T03:56:39.465Z,96.18
2023-04-02T03:57:42.796Z,95.85
2023-04-02T03:58:24.835Z,96.55
2023-04-02T03:59:13.277Z,96.67
2023-04-02T04:00:11.195Z,96.76
2023-04-02T04:00:49.849Z,96.76
2023-04-02T04:01:28.955Z,96.79
2023-04-02T04:02:19.048Z,96.49
2023-04-02T04:02:54.870Z,96.58
2023-04-02T04:03:41.783Z,96.24
2023-04-02T04:04:18.083Z,96.35
2023-04-02T04:04:50.816Z,96.29
2023-04-02T04:05:29.719Z,96.62
2023-04-02T04:06:16.879Z,96.64
2023-04-02T04:06:52.364Z,96.18
2023-04-02T04:07:43.375Z,96.46
2023-04-02T04:08:20.370Z,96.63
2023-04-02T04:08:56.949Z,96.33
2023-04-02T04:09:38.650Z,96.17
2023-04-02T04:10:18.529Z,95.76
2023-04-02T04:10:56.033Z,95.76
2023-04-02T04:11:34.795Z,95.87
2023-04-02T04:12:20.062Z,95.98
2023-04-02T04:12:54.448Z,95.88
2023-04-02T04:13:36.337Z,95.65
2023-04-02T04:14:19.218Z,95.69
2023-04-02T04:15:25.277Z,95.72
2023-04-02T04:16:04.955Z,96.21
2023-04-02T04:16:48.329Z,95.63
2023-04-02T04:17:51.485Z,96.24
2023-04-02T04:18:37.946Z,95.95
2023-04-02T04:19:19.548Z,95.57
2023-04-02T04:19:58.230Z,94.88
2023-04-02T04:20:33.852Z,95.26
2023-04-02T04:21:29.843Z,95.02
2023-04-02T04:22:15.886Z,94.65
2023-04-02T04:22:49.816Z,94.90
2023-04-02T04:23:30.523Z,94.21
2023-04-02T04:24:04.818Z,94.53
2023-04-02T04:24:39.404Z,93.85
2023-04-02T04:25:22.398Z,93.97
2023-04-02T04:25:59.141Z,94.12
2023-04-02T04:26:44.443Z,94.55
2023-04-02T04:27:34.584Z,94.38
2023-04-02T04:28:38.789Z,94.15
2023-04-02T04:29:31.863Z,94.65
2023-04-02T04:30:16.912Z,94.30
2023-04-02T04:31:01.855Z,93.69
2023-04-02T04:31:49.671Z,93.96
2023-04-02T04:32:32.031Z,93.93
2023-04-02T04:33:15.349Z,93.44
2023-04-02T04:33:50.669Z,93.42
2023-04-02T04:34:29.980Z,92.98
2023-04-02T04:35:08.175Z,92.95
2023-04-02T04:35:46.950Z,92.97
2023-04-02T04:36:28.743Z,93.38
2023-04-02T04:37:07.606Z,92.54
2023-04-02T04:37:43.418Z,91.98
2023-04-02T04:38:27.446Z,91.52
2023-04-02T04:39:05.860Z,92.26
2023-04-02T04:39:44.596Z,92.18
2023-04-02T04:40:22.869Z,92.71
2023-04-02T04:40:59.534Z,92.73
2023-04-02T04:41:35.731Z,92.06
2023-04-02T04:42:12.548Z,92.40
2023-04-02T04:42:45.824Z,92.59
2023-04-02T04:43:26.147Z,91.95
2023-04-02T04:44:18.980Z,92.47
2023-04-02T04:45:08.810Z,92.26
2023-04-02T04:46:22.718Z,92.75
2023-04-02T04:46:57.068Z,92.63
2023-04-02T04:48:00.696Z,92.22
2023-04-02T04:48:52.098Z,92.58
2023-04-02T04:49:32.207Z,92.53
2023-04-02T04:50:11.439Z,92.84
2023-04-02T04:51:01.336Z,93.11
2023-04-02T04:51:56.799Z,93.00
2023-04-02T04:52:33.985Z,92.84
2023-04-02T04:53:08.402Z,93.14
2023-04-02T04:53:47.647Z,92.92
2023-04-02T04:54:20.140Z,92.74
2023-04-02T04:54:52.097Z,93.15
2023-04-02T04:55:29.298Z,93.13
2023-04-02T04:56:18.019Z,93.01
2023-04-02T04:56:57.890Z,92.77
2023-04-02T04:57:34.214Z,92.42
2023-04-02T04:58:27.044Z,92.96
2023-04-02T04:59:22.484Z,93.12
2023-04-02T05:00:08.540Z,92.98
2023-04-02T05:00:50.882Z,92.80
2023-04-02T05:01:33.335Z,93.35
2023-04-02T05:02:18.881Z,93.29
2023-04-02T05:02:57.257Z,93.32
2023-04-02T05:03:31.070Z,93.35
2023-04-02T05:04:26.092Z,92.31
2023-04-02T05:04:57.666Z,91.85
2023-04-02T05:05:32.015Z,91.42
2023-04-02T05:06:24.674Z,92.07
2023-04-02T05:07:30.192Z,91.80
2023-04-02T05:08:12.022Z,90.70
2023-04-02T05:08:47.835Z,90.17
2023-04-02T05:09:33.357Z,90.16
2023-04-02T05:10:19.421Z,89.69
2023-04-02T05:11:13.452Z,89.24
2023-04-02T05:11:50.998Z,89.30
2023-04-02T05:12:49.265Z,89.31
2023-04-02T05:13:36.012Z,89.55
2023-04-02T05:14:17.585Z,89.24
2023-04-02T05:14:57.081Z,89.00
2023-04-02T05:15:54.702Z,89.20
2023-04-02T05:16:32.176Z,88.52
2023-04-02T05:17:17.605Z,88.53
2023-04-02T05:18:00.152Z,88.20
2023-04-02T05:18:37.637Z,88.44
2023-04-02T05:19:16.985Z,88.88
2023-04-02T05:20:16.399Z,88.74
2023-04-02T05:20:59.008Z,88.70
2023-04-02T05:21:41.583Z,88.04
2023-04-02T05:22:54.641Z,88.67
2023-04-02T05:23:27.307Z,88.50
2023-04-02T05:24:35.752Z,88.37
2023-04-02T05:25:24.898Z,88.60
2023-04-02T05:26:09.286Z,88.88
2023-04-02T05:26:45.791Z,89.52
2023-04-02T05:27:43.329Z,89.05
2023-04-02T05:28:21.595Z,89.49
2023-04-02T05:28:59.141Z,89.60
2023-04-02T05:29:37.183Z,90.21
2023-04-02T05:30:20.066Z,90.19
2023-04-02T05:31:26.036Z,90.13
2023-04-02T05:32:11.887Z,90.20
2023-04-02T05:32:49.750Z,90.21
2023-04-02T05:33:27.397Z,89.91
2023-04-02T05:33:58.903Z,90.16
2023-04-02T05:34:37.104Z,89.86
2023-04-02T05:35:16.311Z,90.18
2023-04-02T05:35:51.028Z,89.57
2023-04-02T05:36:25.798Z,89.66
2023-04-02T05:36:58.380Z,89.89
2023-04-02T05:37:31.047Z,89.77
2023-04-02T05:38:02.963Z,89.43
2023-04-02T05:38:37.664Z,89.15
2023-04-02T05:39:11.094Z,89.01
2023-04-02T05:39:44.952Z,88.79
2023-04-02T05:40:38.603Z,89.29
2023-04-02T05:41:26.844Z,89.14
2023-04-02T05:42:04.261Z,88.96
2023-04-02T05:42:37.778Z,88.74
2023-04-02T05:43:13.936Z,88.84
2023-04-02T05:43:48.499Z,88.79
2023-04-02T05:44:29.546Z,88.90
2023-04-02T05:45:22.549Z,89.01
2023-04-02T05:45:57.445Z,89.08
2023-04-02T05:46:34.621Z,88.82
2023-04-02T05:47:16.310Z,88.83
2023-04-02T05:47:52.033Z,89.20
2023-04-02T05:48:39.205Z,88.77
2023-04-02T05:49:20.311Z,88.81
2023-04-02T05:50:11.061Z,88.82
2023-04-02T05:50:47.483Z,88.73
2023-04-02T05:51:26.022Z,88.31
2023-04-02T05:52:02.051Z,88.08
2023-04-02T05:52:39.022Z,87.88
2023-04-02T05:53:19.162Z,87.45
2023-04-02T05:54:03.741Z,87.90
2023-04-02T05:55:01.152Z,88.24
2023-04-02T05:55:35.327Z,87.92
2023-04-02T05:56:25.898Z,87.76
2023-04-02T05:57:04.473Z,88.01
2023-04-02T05:57:49.512Z,88.01
2023-04-02T05:58:37.212Z,88.03
2023-04-02T05:59:19.422Z,87.91
2023-04-02T05:59:55.425Z,88.28
2023-04-02T06:00:51.823Z,88.38
2023-04-02T06:01:58.839Z,88.58
2023-04-02T06:02:36.237Z,88.54
2023-04-02T06:03:41.713Z,88.22
2023-04-02T06:05:15.816Z,88.43
2023-04-02T06:05:47.578Z,88.69
2023-04-02T06:06:42.565Z,88.39
2023-04-02T06:07:23.790Z,88.24
2023-04-02T06:08:01.288Z,87.83
2023-04-02T06:08:43.553Z,87.53
2023-04-02T06:09:17.792Z,87.66
2023-04-02T06:09:57.860Z,87.50
2023-04-02T06:10:33.577Z,87.58
2023-04-02T06:11:12.168Z,87.87
2023-04-02T06:11:47.941Z,87.97
2023-04-02T06:12:28.491Z,88.27
2023-04-02T06:13:07.726Z,88.34
2023-04-02T06:13:39.382Z,88.83
2023-04-02T06:14:15.529Z,89.10
2023-04-02T06:14:47.066Z,88.71
2023-04-02T06:15:21.587Z,88.74
2023-04-02T06:15:53.218Z,88.45
2023-04-02T06:16:30.265Z,88.63
2023-04-02T06:17:01.724Z,88.60
2023-04-02T06:17:46.681Z,88.63
2023-04-02T06:18:25.659Z,88.96
2023-04-02T06:18:58.020Z,88.95
2023-04-02T06:19:38.183Z,88.76
2023-04-02T06:20:15.044Z,89.18
2023-04-02T06:20:47.193Z,89.08
2023-04-02T06:21:21.092Z,88.97
2023-04-02T06:21:57.848Z,88.88
2023-04-02T06:22:39.614Z,88.67
2023-04-02T06:23:45.034Z,88.70
2023-04-02T06:24:22.520Z,88.95
2023-04-02T06:25:00.650Z,88.80
2023-04-02T06:25:58.930Z,88.75
2023-04-02T06:26:35.210Z,88.51
2023-04-02T06:27:10.174Z,88.52
2023-04-02T06:27:44.361Z,88.21
2023-04-02T06:28:21.420Z,88.43
2023-04-02T06:28:59.755Z,88.52
2023-04-02T06:29:38.404Z,88.83
2023-04-02T06:30:19.082Z,89.31
2023-04-02T06:30:59.368Z,89.37
2023-04-02T06:31:38.905Z,89.03
2023-04-02T06:32:12.277Z,89.08
2023-04-02T06:32:43.721Z,88.64
2023-04-02T06:33:15.890Z,88.93
2023-04-02T06:33:52.209Z,88.81
2023-04-02T06:34:25.824Z,88.84
2023-04-02T06:34:57.398Z,88.61
2023-04-02T06:35:29.120Z,88.45
2023-04-02T06:36:01.625Z,88.38
2023-04-02T06:36:33.636Z,88.38
2023-04-02T06:37:27.297Z,88.46
2023-04-02T06:38:03.993Z,88.43
2023-04-02T06:38:36.553Z,88.71
2023-04-02T06:39:12.300Z,88.64
2023-04-02T06:39:43.752Z,88.62
2023-04-02T06:40:33.620Z,88.33
2023-04-02T06:41:15.020Z,88.21
2023-04-02T06:41:46.743Z,87.91
2023-04-02T06:42:23.856Z,87.81
2023-04-02T06:42:59.778Z,88.11
2023-04-02T06:43:43.768Z,88.05
2023-04-02T06:44:21.040Z,88.05
2023-04-02T06:44:52.676Z,88.14
2023-04-02T06:45:31.608Z,88.47
2023-04-02T06:46:11.375Z,88.23
2023-04-02T06:46:50.021Z,88.55
2023-04-02T06:47:37.707Z,88.27
2023-04-02T06:48:17.238Z,88.11
2023-04-02T06:48:52.182Z,88.02
2023-04-02T06:49:30.788Z,88.14
2023-04-02T06:50:14.960Z,88.04
2023-04-02T06:51:07.940Z,88.28
2023-04-02T06:51:41.715Z,88.07
2023-04-02T06:52:25.377Z,88.32
2023-04-02T06:53:06.315Z,88.22
2023-04-02T06:53:44.160Z,88.21
2023-04-02T06:54:17.743Z,88.38
2023-04-02T06:54:49.462Z,88.06
2023-04-02T06:55:20.844Z,88.00
2023-04-02T06:56:03.966Z,87.78
2023-04-02T06:56:50.811Z,88.13
2023-04-02T06:57:22.343Z,87.98
2023-04-02T06:57:54.004Z,88.00
2023-04-02T06:58:25.380Z,88.06
2023-04-02T06:58:56.875Z,88.12
2023-04-02T06:59:28.378Z,88.26
2023-04-02T06:59:59.879Z,88.24
2023-04-02T07:00:38.444Z,88.75
2023-04-02T07:01:19.663Z,88.75
2023-04-02T07:01:59.177Z,88.53
2023-04-02T07:02:32.753Z,88.40
2023-04-02T07:03:07.761Z,88.61
2023-04-02T07:03:40.074Z,88.63
2023-04-02T07:04:11.847Z,88.67
2023-04-02T07:04:43.601Z,88.91
2023-04-02T07:05:15.118Z,88.56
2023-04-02T07:05:47.436Z,88.08
2023-04-02T07:06:21.196Z,88.02
2023-04-02T07:06:53.262Z,88.02
2023-04-02T07:07:24.679Z,87.93
2023-04-02T07:08:03.800Z,87.89
2023-04-02T07:08:40.845Z,87.96
2023-04-02T07:09:12.500Z,88.21
2023-04-02T07:09:43.952Z,88.40
2023-04-02T07:10:15.526Z,88.63
2023-04-02T07:10:47.246Z,88.81
2023-04-02T07:11:21.800Z,89.02
2023-04-02T07:11:53.246Z,89.21
2023-04-02T07:12:25.654Z,89.35
2023-04-02T07:12:57.147Z,89.28
2023-04-02T07:13:28.598Z,88.75
2023-04-02T07:14:00.016Z,88.76
2023-04-02T07:14:31.561Z,88.87
2023-04-02T07:15:03.879Z,88.53
2023-04-02T07:15:36.444Z,88.29
2023-04-02T07:16:15.742Z,88.67
2023-04-02T07:16:47.310Z,88.72
2023-04-02T07:17:19.895Z,88.66
2023-04-02T07:17:52.182Z,88.92
2023-04-02T07:18:31.978Z,88.91
2023-04-02T07:19:04.127Z,89.01
2023-04-02T07:19:35.572Z,88.98
2023-04-02T07:20:20.521Z,89.12
2023-04-02T07:20:52.283Z,88.60
2023-04-02T07:21:23.884Z,89.02
2023-04-02T07:21:55.314Z,89.05
2023-04-02T07:22:26.855Z,88.72
2023-04-02T07:22:58.522Z,88.55
2023-04-02T07:23:30.051Z,89.01
2023-04-02T07:24:01.494Z,89.16
2023-04-02T07:24:32.992Z,88.82
2023-04-02T07:25:04.672Z,88.94
2023-04-02T07:25:39.167Z,88.58
2023-04-02T07:26:20.044Z,88.79
2023-04-02T07:26:51.899Z,88.87
2023-04-02T07:27:23.337Z,88.86
2023-04-02T07:27:55.352Z,88.85
2023-04-02T07:28:26.850Z,89.37
2023-04-02T07:28:58.460Z,88.90
2023-04-02T07:29:29.998Z,88.21
2023-04-02T07:30:01.443Z,88.60
2023-04-02T07:30:32.824Z,88.26
2023-04-02T07:31:04.362Z,88.58
2023-04-02T07:31:38.671Z,88.81
2023-04-02T07:32:13.835Z,88.47
2023-04-02T07:32:45.756Z,88.22
2023-04-02T07:33:20.478Z,88.66
2023-04-02T07:33:54.250Z,89.13
2023-04-02T07:34:25.845Z,89.67
2023-04-02T07:34:57.428Z,89.62
2023-04-02T07:35:29.782Z,89.08
2023-04-02T07:36:01.442Z,88.94
2023-04-02T07:36:33.000Z,88.73
2023-04-02T07:37:04.746Z,88.87
2023-04-02T07:37:37.417Z,88.85
2023-04-02T07:38:11.647Z,88.79
2023-04-02T07:38:43.457Z,88.51
2023-04-02T07:39:15.607Z,88.74
2023-04-02T07:39:46.992Z,88.81
2023-04-02T07:40:21.831Z,89.20
2023-04-02T07:40:53.367Z,89.06
2023-04-02T07:41:26.157Z,88.96
2023-04-02T07:42:00.485Z,89.51
2023-04-02T07:42:32.123Z,89.14
2023-04-02T07:43:04.592Z,89.36
2023-04-02T07:43:36.151Z,88.90
2023-04-02T07:44:07.669Z,89.12
2023-04-02T07:44:39.129Z,89.52
2023-04-02T07:45:13.957Z,89.19
2023-04-02T07:46:05.809Z,88.68
2023-04-02T07:46:37.229Z,88.89
2023-04-02T07:47:10.547Z,88.63
2023-04-02T07:47:42.756Z,88.71
2023-04-02T07:48:14.888Z,88.62
2023-04-02T07:48:48.705Z,88.96
2023-04-02T07:49:20.415Z,88.75
2023-04-02T07:49:54.526Z,88.50
2023-04-02T07:50:25.961Z,87.98
2023-04-02T07:50:58.052Z,88.19
2023-04-02T07:51:29.475Z,88.59
2023-04-02T07:52:00.984Z,88.76
2023-04-02T07:52:32.894Z,88.73
2023-04-02T07:53:04.795Z,88.85
2023-04-02T07:53:41.734Z,88.83
2023-04-02T07:54:13.155Z,88.92
2023-04-02T07:54:47.540Z,88.25
2023-04-02T07:55:19.038Z,88.13
2023-04-02T07:55:52.885Z,88.25
2023-04-02T07:56:25.562Z,87.96
2023-04-02T07:56:57.050Z,87.97
2023-04-02T07:57:28.626Z,88.13
2023-04-02T07:58:00.269Z,88.33
2023-04-02T07:58:33.008Z,88.69
2023-04-02T07:59:05.041Z,88.42
2023-04-02T07:59:36.612Z,88.70
2023-04-02T08:00:11.777Z,88.84
2023-04-02T08:00:43.248Z,88.80
2023-04-02T08:01:26.026Z,88.49
2023-04-02T08:01:57.903Z,88.60
2023-04-02T08:02:29.616Z,88.19
2023-04-02T08:03:01.439Z,87.91
2023-04-02T08:03:33.079Z,87.98
2023-04-02T08:04:05.311Z,88.13
2023-04-02T08:04:36.692Z,87.97
2023-04-02T08:05:09.229Z,88.30
2023-04-02T08:05:40.650Z,88.68
2023-04-02T08:06:12.410Z,89.15
2023-04-02T08:06:43.935Z,89.47
2023-04-02T08:07:15.407Z,89.48
2023-04-02T08:07:54.805Z,89.42
2023-04-02T08:08:26.344Z,89.31
2023-04-02T08:08:59.065Z,88.84
2023-04-02T08:09:33.328Z,88.51
2023-04-02T08:10:06.762Z,88.76
2023-04-02T08:10:38.153Z,88.20
2023-04-02T08:11:10.947Z,88.08
2023-04-02T08:11:42.924Z,87.86
2023-04-02T08:12:15.079Z,88.42
2023-04-02T08:12:46.428Z,88.05
2023-04-02T08:13:18.338Z,88.19
2023-04-02T08:13:49.822Z,88.12
2023-04-02T08:14:21.191Z,88.21
2023-04-02T08:14:52.684Z,88.40
2023-04-02T08:15:24.109Z,88.37
2023-04-02T08:15:59.796Z,87.97
2023-04-02T08:16:48.975Z,87.72
2023-04-02T08:17:21.224Z,87.61
2023-04-02T08:17:53.532Z,87.28
2023-04-02T08:18:25.725Z,87.58
2023-04-02T08:18:57.236Z,87.36
2023-04-02T08:19:28.676Z,87.53
2023-04-02T08:20:04.373Z,87.21
2023-04-02T08:20:35.816Z,87.22
2023-04-02T08:21:09.968Z,87.37